KSFB

Orlando Sanford International Airport

Orlando, Florida, USA
KSFB 181124Z 1812/1912 35003KT P6SM FEW003 FEW015 FM181400 06007KT P6SM FEW035 FM181800 07008KT P6SM VCSH SCT050 FM190300 04003KT P6SM SCT050
Issued Valid From Valid To
Oct-18 @ 11:24 UTC
(58 minutes ago)
Oct-18 @ 12:00 UTC
(22 minutes ago)
Oct-19 @ 12:00 UTC
(in 24 hours)
Oct-18 @ 12:00 to Oct-18 @ 14:00
KSFB 181124Z 1812/1912 35003KT P6SM FEW003 FEW015
Wind Visibility Clouds
350° at 3 knots Greater than 6 miles
  • Few at 300' AGL
  • Few at 1,500' AGL
From Oct-18 @ 14:00 to Oct-18 @ 18:00
FM181400 06007KT P6SM FEW035
Wind Visibility Clouds
60° at 7 knots Greater than 6 miles
  • Few at 3,500' AGL
From Oct-18 @ 18:00 to Oct-19 @ 03:00
FM181800 07008KT P6SM VCSH SCT050
Wind Visibility Clouds
70° at 8 knots Greater than 6 miles
  • Scattered at 5,000' AGL
From Oct-19 @ 03:00 to Oct-19 @ 12:00
FM190300 04003KT P6SM SCT050
Wind Visibility Clouds
40° at 3 knots Greater than 6 miles
  • Scattered at 5,000' AGL
KSFB 181124Z 1812/1912 35003KT P6SM FEW003 FEW015 FM181400 06007KT P6SM FEW035 FM181800 07008KT P6SM VCSH SCT050 FM190300 04003KT P6SM SCT050
Issued Oct-18 @ 11:24 UTC
(58 minutes ago)
Valid From Oct-18 @ 12:00 UTC
(22 minutes ago)
Valid To Oct-19 @ 12:00 UTC
(in 24 hours)
Oct-18 @ 12:00 - Oct-18 @ 14:00
Wind Visibility
350° at 3 knots Greater than 6 miles
Clouds
  • Few at 300' AGL
  • Few at 1,500' AGL
From Oct-18 @ 14:00 - Oct-18 @ 18:00
Wind Visibility
60° at 7 knots Greater than 6 miles
Clouds
  • Few at 3,500' AGL
From Oct-18 @ 18:00 - Oct-19 @ 03:00
Wind Visibility
70° at 8 knots Greater than 6 miles
Clouds
  • Scattered at 5,000' AGL
From Oct-19 @ 03:00 - Oct-19 @ 12:00
Wind Visibility
40° at 3 knots Greater than 6 miles
Clouds
  • Scattered at 5,000' AGL